sensor_id;sensor_type;location;lat;lon;timestamp;temperature;humidity
12771;DHT22;6449;47.666;9.160;2023-04-25T00:01:17;9.30;99.90
12771;DHT22;6449;47.666;9.160;2023-04-25T00:06:11;9.10;99.90
12771;DHT22;6449;47.666;9.160;2023-04-25T00:11:05;8.90;99.90
12771;DHT22;6449;47.666;9.160;2023-04-25T00:16:00;8.80;99.90
12771;DHT22;6449;47.666;9.160;2023-04-25T00:20:55;8.80;99.90
12771;DHT22;6449;47.666;9.160;2023-04-25T00:25:49;8.90;99.90
12771;DHT22;6449;47.666;9.160;2023-04-25T00:30:43;8.80;99.90
12771;DHT22;6449;47.666;9.160;2023-04-25T00:35:38;8.70;99.90
12771;DHT22;6449;47.666;9.160;2023-04-25T00:40:32;8.80;99.90
12771;DHT22;6449;47.666;9.160;2023-04-25T00:45:28;8.90;99.90
12771;DHT22;6449;47.666;9.160;2023-04-25T00:50:22;8.90;99.90
12771;DHT22;6449;47.666;9.160;2023-04-25T00:55:17;9.00;99.90
12771;DHT22;6449;47.666;9.160;2023-04-25T01:00:11;9.00;99.90
12771;DHT22;6449;47.666;9.160;2023-04-25T01:05:06;9.00;99.90
12771;DHT22;6449;47.666;9.160;2023-04-25T01:10:01;8.90;99.90
12771;DHT22;6449;47.666;9.160;2023-04-25T01:14:57;8.90;99.90
12771;DHT22;6449;47.666;9.160;2023-04-25T01:19:52;8.90;99.90
12771;DHT22;6449;47.666;9.160;2023-04-25T01:24:47;8.80;99.90
12771;DHT22;6449;47.666;9.160;2023-04-25T01:29:40;8.70;99.90
12771;DHT22;6449;47.666;9.160;2023-04-25T01:34:34;8.60;99.90
12771;DHT22;6449;47.666;9.160;2023-04-25T01:39:28;8.70;99.90
12771;DHT22;6449;47.666;9.160;2023-04-25T01:44:23;8.80;99.90
12771;DHT22;6449;47.666;9.160;2023-04-25T01:49:19;8.50;99.90
12771;DHT22;6449;47.666;9.160;2023-04-25T01:54:12;8.30;99.90
12771;DHT22;6449;47.666;9.160;2023-04-25T01:59:06;8.20;99.90
12771;DHT22;6449;47.666;9.160;2023-04-25T02:04:01;7.90;99.90
12771;DHT22;6449;47.666;9.160;2023-04-25T02:08:55;8.00;99.90
12771;DHT22;6449;47.666;9.160;2023-04-25T02:13:48;8.00;99.90
12771;DHT22;6449;47.666;9.160;2023-04-25T02:18:42;8.00;99.90
12771;DHT22;6449;47.666;9.160;2023-04-25T02:23:38;8.00;99.90
12771;DHT22;6449;47.666;9.160;2023-04-25T02:28:31;7.90;99.90
12771;DHT22;6449;47.666;9.160;2023-04-25T02:33:24;7.80;99.90
12771;DHT22;6449;47.666;9.160;2023-04-25T02:38:18;7.80;99.90
12771;DHT22;6449;47.666;9.160;2023-04-25T02:43:12;7.80;99.90
12771;DHT22;6449;47.666;9.160;2023-04-25T02:48:06;7.80;99.90
12771;DHT22;6449;47.666;9.160;2023-04-25T02:52:59;7.70;99.90
12771;DHT22;6449;47.666;9.160;2023-04-25T02:57:53;7.60;99.90
12771;DHT22;6449;47.666;9.160;2023-04-25T03:02:48;7.50;99.90
12771;DHT22;6449;47.666;9.160;2023-04-25T03:07:43;7.50;99.90
12771;DHT22;6449;47.666;9.160;2023-04-25T03:12:37;7.40;99.90
12771;DHT22;6449;47.666;9.160;2023-04-25T03:17:30;7.50;99.90
12771;DHT22;6449;47.666;9.160;2023-04-25T03:22:25;7.50;99.90
12771;DHT22;6449;47.666;9.160;2023-04-25T03:27:21;7.50;99.90
12771;DHT22;6449;47.666;9.160;2023-04-25T03:32:15;7.60;99.90
12771;DHT22;6449;47.666;9.160;2023-04-25T03:37:08;7.70;99.90
12771;DHT22;6449;47.666;9.160;2023-04-25T03:42:03;7.70;99.90
12771;DHT22;6449;47.666;9.160;2023-04-25T03:46:57;7.70;99.90
12771;DHT22;6449;47.666;9.160;2023-04-25T03:51:50;7.70;99.90
12771;DHT22;6449;47.666;9.160;2023-04-25T03:56:43;7.60;99.90
12771;DHT22;6449;47.666;9.160;2023-04-25T04:01:38;7.50;99.90
12771;DHT22;6449;47.666;9.160;2023-04-25T04:06:32;7.40;99.90
12771;DHT22;6449;47.666;9.160;2023-04-25T04:11:25;7.20;99.90
12771;DHT22;6449;47.666;9.160;2023-04-25T04:16:19;7.30;99.90
12771;DHT22;6449;47.666;9.160;2023-04-25T04:21:14;7.30;99.90
12771;DHT22;6449;47.666;9.160;2023-04-25T04:26:07;7.30;99.90
12771;DHT22;6449;47.666;9.160;2023-04-25T04:31:01;7.20;99.90
12771;DHT22;6449;47.666;9.160;2023-04-25T04:35:55;7.20;99.90
12771;DHT22;6449;47.666;9.160;2023-04-25T04:40:50;7.00;99.90
12771;DHT22;6449;47.666;9.160;2023-04-25T04:45:44;6.90;99.90
12771;DHT22;6449;47.666;9.160;2023-04-25T04:50:37;7.00;99.90
12771;DHT22;6449;47.666;9.160;2023-04-25T04:55:31;7.00;99.90
12771;DHT22;6449;47.666;9.160;2023-04-25T05:00:29;7.20;99.90
12771;DHT22;6449;47.666;9.160;2023-04-25T05:05:24;7.50;99.90
12771;DHT22;6449;47.666;9.160;2023-04-25T05:10:18;7.50;99.90
12771;DHT22;6449;47.666;9.160;2023-04-25T05:15:12;7.50;99.90
12771;DHT22;6449;47.666;9.160;2023-04-25T05:20:09;7.20;99.90
12771;DHT22;6449;47.666;9.160;2023-04-25T05:25:03;7.20;99.90
12771;DHT22;6449;47.666;9.160;2023-04-25T05:29:57;7.40;99.90
12771;DHT22;6449;47.666;9.160;2023-04-25T05:34:50;7.70;99.90
12771;DHT22;6449;47.666;9.160;2023-04-25T05:39:45;7.90;99.90
12771;DHT22;6449;47.666;9.160;2023-04-25T05:44:39;8.00;99.90
12771;DHT22;6449;47.666;9.160;2023-04-25T05:49:34;8.00;99.90
12771;DHT22;6449;47.666;9.160;2023-04-25T05:54:27;8.10;99.90
12771;DHT22;6449;47.666;9.160;2023-04-25T05:59:22;8.10;99.90
12771;DHT22;6449;47.666;9.160;2023-04-25T06:04:15;8.20;99.90
12771;DHT22;6449;47.666;9.160;2023-04-25T06:09:12;8.30;99.90
12771;DHT22;6449;47.666;9.160;2023-04-25T06:14:06;8.30;99.90
12771;DHT22;6449;47.666;9.160;2023-04-25T06:19:01;8.60;99.90
12771;DHT22;6449;47.666;9.160;2023-04-25T06:23:54;8.70;99.90
12771;DHT22;6449;47.666;9.160;2023-04-25T06:28:50;8.60;99.90
12771;DHT22;6449;47.666;9.160;2023-04-25T06:33:43;8.60;99.90
12771;DHT22;6449;47.666;9.160;2023-04-25T06:38:38;8.70;99.90
12771;DHT22;6449;47.666;9.160;2023-04-25T06:43:32;9.00;99.90
12771;DHT22;6449;47.666;9.160;2023-04-25T06:48:25;9.10;99.90
12771;DHT22;6449;47.666;9.160;2023-04-25T06:53:18;9.30;99.90
12771;DHT22;6449;47.666;9.160;2023-04-25T06:58:13;9.50;99.90
12771;DHT22;6449;47.666;9.160;2023-04-25T07:03:07;9.50;99.90
12771;DHT22;6449;47.666;9.160;2023-04-25T07:08:00;9.50;99.90
12771;DHT22;6449;47.666;9.160;2023-04-25T07:12:54;9.40;99.90
12771;DHT22;6449;47.666;9.160;2023-04-25T07:17:49;9.30;99.90
12771;DHT22;6449;47.666;9.160;2023-04-25T07:22:43;9.10;99.90
12771;DHT22;6449;47.666;9.160;2023-04-25T07:27:37;8.80;99.90
12771;DHT22;6449;47.666;9.160;2023-04-25T07:37:39;8.20;99.90
12771;DHT22;6449;47.666;9.160;2023-04-25T07:52:36;7.60;99.90
12771;DHT22;6449;47.666;9.160;2023-04-25T07:57:31;7.40;99.90
12771;DHT22;6449;47.666;9.160;2023-04-25T08:02:25;7.30;99.90
12771;DHT22;6449;47.666;9.160;2023-04-25T08:07:20;7.40;99.90
12771;DHT22;6449;47.666;9.160;2023-04-25T08:17:22;7.40;99.90
12771;DHT22;6449;47.666;9.160;2023-04-25T09:13:37;7.60;99.90
12771;DHT22;6449;47.666;9.160;2023-04-25T09:18:33;7.70;99.90
12771;DHT22;6449;47.666;9.160;2023-04-25T09:28:23;8.00;99.90
12771;DHT22;6449;47.666;9.160;2023-04-25T09:43:58;8.10;99.90
12771;DHT22;6449;47.666;9.160;2023-04-25T09:48:52;8.30;99.90
12771;DHT22;6449;47.666;9.160;2023-04-25T09:59:27;8.60;99.90
12771;DHT22;6449;47.666;9.160;2023-04-25T10:04:25;8.60;99.90
12771;DHT22;6449;47.666;9.160;2023-04-25T10:09:26;8.80;99.90
12771;DHT22;6449;47.666;9.160;2023-04-25T10:14:23;9.00;99.90
12771;DHT22;6449;47.666;9.160;2023-04-25T10:19:19;9.00;99.90
12771;DHT22;6449;47.666;9.160;2023-04-25T10:24:13;9.00;99.90
12771;DHT22;6449;47.666;9.160;2023-04-25T10:29:09;9.20;99.90
12771;DHT22;6449;47.666;9.160;2023-04-25T10:34:03;9.40;99.90
12771;DHT22;6449;47.666;9.160;2023-04-25T10:44:06;9.80;99.90
12771;DHT22;6449;47.666;9.160;2023-04-25T10:49:02;9.90;99.90
12771;DHT22;6449;47.666;9.160;2023-04-25T10:54:01;9.80;99.90
12771;DHT22;6449;47.666;9.160;2023-04-25T10:59:08;9.70;99.90
12771;DHT22;6449;47.666;9.160;2023-04-25T11:04:03;9.50;99.90
12771;DHT22;6449;47.666;9.160;2023-04-25T11:08:57;9.40;99.90
12771;DHT22;6449;47.666;9.160;2023-04-25T11:13:54;9.50;99.90
12771;DHT22;6449;47.666;9.160;2023-04-25T11:18:49;9.90;99.90
12771;DHT22;6449;47.666;9.160;2023-04-25T11:23:44;10.50;99.90
12771;DHT22;6449;47.666;9.160;2023-04-25T11:28:39;10.90;99.90
12771;DHT22;6449;47.666;9.160;2023-04-25T11:33:33;10.70;99.90
12771;DHT22;6449;47.666;9.160;2023-04-25T11:38:28;10.10;99.90
12771;DHT22;6449;47.666;9.160;2023-04-25T11:43:22;10.00;99.90
12771;DHT22;6449;47.666;9.160;2023-04-25T11:48:16;9.90;99.90
12771;DHT22;6449;47.666;9.160;2023-04-25T11:53:12;10.40;99.90
12771;DHT22;6449;47.666;9.160;2023-04-25T11:58:07;10.90;99.90
12771;DHT22;6449;47.666;9.160;2023-04-25T12:03:01;11.30;99.90
12771;DHT22;6449;47.666;9.160;2023-04-25T12:07:55;10.90;99.90
12771;DHT22;6449;47.666;9.160;2023-04-25T12:12:49;11.00;99.90
12771;DHT22;6449;47.666;9.160;2023-04-25T12:17:44;10.90;99.90
12771;DHT22;6449;47.666;9.160;2023-04-25T12:22:41;10.70;99.90
12771;DHT22;6449;47.666;9.160;2023-04-25T12:27:37;10.60;99.90
12771;DHT22;6449;47.666;9.160;2023-04-25T12:32:31;10.40;99.90
12771;DHT22;6449;47.666;9.160;2023-04-25T12:37:28;9.90;99.90
12771;DHT22;6449;47.666;9.160;2023-04-25T12:42:21;9.30;99.90
12771;DHT22;6449;47.666;9.160;2023-04-25T12:47:15;9.70;99.90
12771;DHT22;6449;47.666;9.160;2023-04-25T12:52:08;10.00;99.90
12771;DHT22;6449;47.666;9.160;2023-04-25T12:57:03;10.20;99.90
12771;DHT22;6449;47.666;9.160;2023-04-25T13:01:56;10.60;99.90
12771;DHT22;6449;47.666;9.160;2023-04-25T13:06:50;10.50;99.90
12771;DHT22;6449;47.666;9.160;2023-04-25T13:11:43;10.50;99.90
12771;DHT22;6449;47.666;9.160;2023-04-25T13:16:39;10.60;99.90
12771;DHT22;6449;47.666;9.160;2023-04-25T13:21:33;10.80;99.90
12771;DHT22;6449;47.666;9.160;2023-04-25T13:26:26;11.00;99.90
12771;DHT22;6449;47.666;9.160;2023-04-25T13:31:19;11.00;99.90
12771;DHT22;6449;47.666;9.160;2023-04-25T13:36:14;10.90;99.90
12771;DHT22;6449;47.666;9.160;2023-04-25T13:41:08;11.00;99.90
12771;DHT22;6449;47.666;9.160;2023-04-25T13:46:03;11.00;99.90
12771;DHT22;6449;47.666;9.160;2023-04-25T13:50:57;11.00;99.90
12771;DHT22;6449;47.666;9.160;2023-04-25T13:55:51;11.00;99.90
12771;DHT22;6449;47.666;9.160;2023-04-25T14:00:45;11.20;99.90
12771;DHT22;6449;47.666;9.160;2023-04-25T14:05:38;11.50;99.90
12771;DHT22;6449;47.666;9.160;2023-04-25T14:10:32;11.50;99.90
12771;DHT22;6449;47.666;9.160;2023-04-25T14:15:27;11.40;99.90
12771;DHT22;6449;47.666;9.160;2023-04-25T14:20:21;11.30;99.90
12771;DHT22;6449;47.666;9.160;2023-04-25T14:25:15;11.60;99.90
12771;DHT22;6449;47.666;9.160;2023-04-25T14:30:10;11.50;99.90
12771;DHT22;6449;47.666;9.160;2023-04-25T14:35:06;11.40;99.90
12771;DHT22;6449;47.666;9.160;2023-04-25T14:39:59;11.00;99.90
12771;DHT22;6449;47.666;9.160;2023-04-25T14:44:53;10.70;99.90
12771;DHT22;6449;47.666;9.160;2023-04-25T14:49:46;10.40;99.90
12771;DHT22;6449;47.666;9.160;2023-04-25T14:54:47;10.30;99.90
12771;DHT22;6449;47.666;9.160;2023-04-25T14:59:40;10.40;99.90
12771;DHT22;6449;47.666;9.160;2023-04-25T15:04:34;10.50;99.90
12771;DHT22;6449;47.666;9.160;2023-04-25T15:09:28;10.70;99.90
12771;DHT22;6449;47.666;9.160;2023-04-25T15:14:22;10.70;99.90
12771;DHT22;6449;47.666;9.160;2023-04-25T15:19:17;10.50;99.90
12771;DHT22;6449;47.666;9.160;2023-04-25T15:24:10;10.30;99.90
12771;DHT22;6449;47.666;9.160;2023-04-25T15:29:03;10.50;99.90
12771;DHT22;6449;47.666;9.160;2023-04-25T15:34:00;10.60;99.90
12771;DHT22;6449;47.666;9.160;2023-04-25T15:38:53;10.60;99.90
12771;DHT22;6449;47.666;9.160;2023-04-25T15:43:47;10.90;99.90
12771;DHT22;6449;47.666;9.160;2023-04-25T15:48:41;11.00;99.90
12771;DHT22;6449;47.666;9.160;2023-04-25T15:53:35;11.10;99.90
12771;DHT22;6449;47.666;9.160;2023-04-25T15:58:29;11.20;99.90
12771;DHT22;6449;47.666;9.160;2023-04-25T16:03:22;11.00;99.90
12771;DHT22;6449;47.666;9.160;2023-04-25T16:08:16;10.70;99.90
12771;DHT22;6449;47.666;9.160;2023-04-25T16:13:11;10.50;99.90
12771;DHT22;6449;47.666;9.160;2023-04-25T16:18:04;10.40;99.90
12771;DHT22;6449;47.666;9.160;2023-04-25T16:22:59;10.40;99.90
12771;DHT22;6449;47.666;9.160;2023-04-25T16:27:52;10.30;99.90
12771;DHT22;6449;47.666;9.160;2023-04-25T16:32:47;10.20;99.90
12771;DHT22;6449;47.666;9.160;2023-04-25T16:37:41;10.00;99.90
12771;DHT22;6449;47.666;9.160;2023-04-25T16:42:35;9.60;99.90
12771;DHT22;6449;47.666;9.160;2023-04-25T16:47:28;9.50;99.90
12771;DHT22;6449;47.666;9.160;2023-04-25T16:52:23;9.30;99.90
12771;DHT22;6449;47.666;9.160;2023-04-25T16:57:17;9.20;99.90
12771;DHT22;6449;47.666;9.160;2023-04-25T17:02:12;9.20;99.90
12771;DHT22;6449;47.666;9.160;2023-04-25T17:07:06;9.10;99.90
12771;DHT22;6449;47.666;9.160;2023-04-25T17:12:02;9.10;99.90
12771;DHT22;6449;47.666;9.160;2023-04-25T17:16:55;9.10;99.90
12771;DHT22;6449;47.666;9.160;2023-04-25T17:21:49;9.20;99.90
12771;DHT22;6449;47.666;9.160;2023-04-25T17:26:43;9.20;99.90
12771;DHT22;6449;47.666;9.160;2023-04-25T17:31:40;9.20;99.90
12771;DHT22;6449;47.666;9.160;2023-04-25T17:36:34;9.20;99.90
12771;DHT22;6449;47.666;9.160;2023-04-25T17:41:28;9.10;99.90
12771;DHT22;6449;47.666;9.160;2023-04-25T17:46:21;9.10;99.90
12771;DHT22;6449;47.666;9.160;2023-04-25T17:51:16;9.20;99.90
12771;DHT22;6449;47.666;9.160;2023-04-25T17:56:09;9.30;99.90
12771;DHT22;6449;47.666;9.160;2023-04-25T18:01:17;9.30;99.90
12771;DHT22;6449;47.666;9.160;2023-04-25T18:06:11;9.20;99.90
12771;DHT22;6449;47.666;9.160;2023-04-25T18:11:05;9.10;99.90
12771;DHT22;6449;47.666;9.160;2023-04-25T18:16:20;9.00;99.90
12771;DHT22;6449;47.666;9.160;2023-04-25T18:21:28;9.00;99.90
12771;DHT22;6449;47.666;9.160;2023-04-25T18:27:18;9.00;99.90
12771;DHT22;6449;47.666;9.160;2023-04-25T18:32:12;9.00;99.90
12771;DHT22;6449;47.666;9.160;2023-04-25T18:37:05;9.00;99.90
12771;DHT22;6449;47.666;9.160;2023-04-25T18:41:59;8.90;99.90
12771;DHT22;6449;47.666;9.160;2023-04-25T18:46:59;9.00;99.90
12771;DHT22;6449;47.666;9.160;2023-04-25T18:51:52;9.00;99.90
12771;DHT22;6449;47.666;9.160;2023-04-25T18:56:48;9.00;99.90
12771;DHT22;6449;47.666;9.160;2023-04-25T19:01:42;8.90;99.90
12771;DHT22;6449;47.666;9.160;2023-04-25T19:06:37;9.00;99.90
12771;DHT22;6449;47.666;9.160;2023-04-25T19:11:30;8.70;99.90
12771;DHT22;6449;47.666;9.160;2023-04-25T19:16:23;8.70;99.90
12771;DHT22;6449;47.666;9.160;2023-04-25T19:21:21;8.70;99.90
12771;DHT22;6449;47.666;9.160;2023-04-25T19:26:16;8.70;99.90
12771;DHT22;6449;47.666;9.160;2023-04-25T19:31:09;8.50;99.90
12771;DHT22;6449;47.666;9.160;2023-04-25T19:36:04;8.40;99.90
12771;DHT22;6449;47.666;9.160;2023-04-25T19:40:57;8.50;99.90
12771;DHT22;6449;47.666;9.160;2023-04-25T19:45:52;8.60;99.90
12771;DHT22;6449;47.666;9.160;2023-04-25T19:50:46;8.70;99.90
12771;DHT22;6449;47.666;9.160;2023-04-25T19:55:39;8.60;99.90
12771;DHT22;6449;47.666;9.160;2023-04-25T20:00:33;8.60;99.90
12771;DHT22;6449;47.666;9.160;2023-04-25T20:05:28;8.60;99.90
12771;DHT22;6449;47.666;9.160;2023-04-25T20:10:23;8.40;99.90
12771;DHT22;6449;47.666;9.160;2023-04-25T20:15:16;8.40;99.90
12771;DHT22;6449;47.666;9.160;2023-04-25T20:20:10;8.20;99.90
12771;DHT22;6449;47.666;9.160;2023-04-25T20:25:07;8.30;99.90
12771;DHT22;6449;47.666;9.160;2023-04-25T20:30:02;8.30;99.90
12771;DHT22;6449;47.666;9.160;2023-04-25T20:34:59;8.20;99.90
12771;DHT22;6449;47.666;9.160;2023-04-25T20:39:55;8.30;99.90
12771;DHT22;6449;47.666;9.160;2023-04-25T20:44:54;8.10;99.90
12771;DHT22;6449;47.666;9.160;2023-04-25T20:51:03;8.00;99.90
12771;DHT22;6449;47.666;9.160;2023-04-25T20:56:07;8.00;99.90
12771;DHT22;6449;47.666;9.160;2023-04-25T21:20:58;8.30;99.90
12771;DHT22;6449;47.666;9.160;2023-04-25T21:25:54;8.20;99.90
12771;DHT22;6449;47.666;9.160;2023-04-25T21:30:52;8.10;99.90
12771;DHT22;6449;47.666;9.160;2023-04-25T21:35:51;8.00;99.90
12771;DHT22;6449;47.666;9.160;2023-04-25T21:40:45;7.90;99.90
12771;DHT22;6449;47.666;9.160;2023-04-25T21:45:41;7.70;99.90
12771;DHT22;6449;47.666;9.160;2023-04-25T21:51:04;7.80;99.90
12771;DHT22;6449;47.666;9.160;2023-04-25T21:56:15;7.70;99.90
12771;DHT22;6449;47.666;9.160;2023-04-25T22:01:20;7.90;99.90
12771;DHT22;6449;47.666;9.160;2023-04-25T22:11:43;7.80;99.90
12771;DHT22;6449;47.666;9.160;2023-04-25T22:16:39;7.90;99.90
12771;DHT22;6449;47.666;9.160;2023-04-25T22:21:33;7.80;99.90
12771;DHT22;6449;47.666;9.160;2023-04-25T22:26:27;7.80;99.90
12771;DHT22;6449;47.666;9.160;2023-04-25T22:31:21;7.80;99.90
12771;DHT22;6449;47.666;9.160;2023-04-25T22:36:14;7.70;99.90
12771;DHT22;6449;47.666;9.160;2023-04-25T22:41:08;7.70;99.90
12771;DHT22;6449;47.666;9.160;2023-04-25T22:46:03;7.70;99.90
12771;DHT22;6449;47.666;9.160;2023-04-25T22:51:03;7.80;99.90
12771;DHT22;6449;47.666;9.160;2023-04-25T22:55:57;7.80;99.90
12771;DHT22;6449;47.666;9.160;2023-04-25T23:00:51;7.70;99.90
12771;DHT22;6449;47.666;9.160;2023-04-25T23:05:46;7.70;99.90
12771;DHT22;6449;47.666;9.160;2023-04-25T23:10:40;7.60;99.90
12771;DHT22;6449;47.666;9.160;2023-04-25T23:15:33;7.70;99.90
12771;DHT22;6449;47.666;9.160;2023-04-25T23:20:27;7.60;99.90
12771;DHT22;6449;47.666;9.160;2023-04-25T23:25:22;7.70;99.90
12771;DHT22;6449;47.666;9.160;2023-04-25T23:30:15;7.60;99.90
12771;DHT22;6449;47.666;9.160;2023-04-25T23:35:09;7.60;99.90
12771;DHT22;6449;47.666;9.160;2023-04-25T23:40:04;7.50;99.90
12771;DHT22;6449;47.666;9.160;2023-04-25T23:45:02;7.40;99.90
12771;DHT22;6449;47.666;9.160;2023-04-25T23:49:56;7.30;99.90
12771;DHT22;6449;47.666;9.160;2023-04-25T23:54:50;7.30;99.90
12771;DHT22;6449;47.666;9.160;2023-04-25T23:59:43;7.10;99.90
